• Join FlightAware (Why Join?)
  • Login
  • US Flag 
07:41PM EST


 

Airport Tracker/Info


-or-


 

Live Flight TrackerFlight Track Log ✈ N431EH ✈ 24-Apr-2014 ✈ KSUN - KSLC

Flight Track Log - Related Links

Times and Time Zones

All times are in EDT time to prevent confusion due to time zone crossing. See the N431EH flight status page for this flight to view local times or setup timezone preferences in your user account.

Time Position Orientation Groundspeed Altitude Reporting Facility
EDT Latitude Longitude Course Direction KTS MPH feet Rate Location/Type
07:40PM 42.9235 -114.0352 158° South  Level FlightAware Approximate
07:40PM 43.0837 -114.0567 144° Southeast 425 489 24,800  Level FlightAware ADS-B (KBTF)
07:41PM 42.8294 -113.9830 158° South  Level FlightAware Approximate
07:41PM 43.0179 -113.9906 143° Southeast 441 507 26,300  Level FlightAware ADS-B (KBTF)
07:42PM 42.9500 -113.9227 143° Southeast 460 529 27,000 480 Climbing FlightAware ADS-B (KBTF)
07:42PM 42.8799 -113.8527 144° Southeast 480 552 27,000  Level FlightAware ADS-B (KBTF)
07:43PM 42.8068 -113.7799 144° Southeast 481 554 27,000  Level FlightAware ADS-B (KBTF)
07:44PM 42.7362 -113.7099 144° Southeast 479 551 27,000  Level FlightAware ADS-B (KBTF)
07:44PM 42.6636 -113.6380 144° Southeast 478 550 27,000  Level FlightAware ADS-B (KBTF)
07:45PM 42.6015 -113.5769 144° Southeast 476 548 27,000  Level FlightAware ADS-B (KBTF)
07:46PM 42.5459 -113.5221 144° Southeast 477 549 27,000  Level FlightAware ADS-B (KBTF)
07:46PM 42.4860 -113.4633 144° Southeast 476 548 27,000  Level FlightAware ADS-B (KBTF)
07:47PM 42.4139 -113.3926 144° Southeast 478 550 27,000  Level FlightAware ADS-B (KBTF)
07:47PM 42.3419 -113.3222 144° Southeast 480 552 27,000  Level FlightAware ADS-B (KBTF)
07:48PM 42.2850 -113.2669 144° Southeast 480 552 27,000 -120 Level FlightAware ADS-B
07:49PM 42.2254 -113.2089 144° Southeast 478 550 26,900 -540 Descending FlightAware ADS-B
07:49PM 42.1604 -113.1458 144° Southeast 477 549 26,400 -1,140 Descending FlightAware ADS-B (KBTF)
07:50PM 42.0945 -113.0822 144° Southeast 474 545 25,600 -1,320 Descending FlightAware ADS-B
07:50PM 42.0442 -113.0336 144° Southeast 468 539 25,000 -1,260 Descending FlightAware ADS-B
07:51PM 41.9858 -112.9773 144° Southeast 458 527 24,300 -1,380 Descending FlightAware ADS-B (KBTF)
07:51PM 41.9319 -112.9256 144° Southeast 450 518 23,500 -1,440 Descending FlightAware ADS-B
07:52PM 41.8744 -112.8705 144° Southeast 444 511 22,800 -1,380 Descending FlightAware ADS-B
07:52PM 41.8236 -112.8219 144° Southeast 440 506 22,100 -1,500 Descending FlightAware ADS-B
07:53PM 41.7549 -112.7564 145° Southeast 442 509 21,000 -1,620 Descending FlightAware ADS-B
07:54PM 41.7026 -112.7057 142° Southeast 442 509 20,200 -1,620 Descending FlightAware ADS-B
07:54PM 41.6867 -112.6876 137° Southeast 438 504 19,900 -1,740 Descending FlightAware ADS-B (KBTF)
07:54PM 41.6398 -112.6287 136° Southeast 441 507 19,000 -1,680 Descending FlightAware ADS-B
07:55PM 41.5958 -112.5722 136° Southeast 436 502 18,200 -1,620 Descending FlightAware ADS-B
07:55PM 41.5423 -112.5041 138° Southeast 406 467 17,200 -1,260 Descending FlightAware ADS-B (KBTF)
07:56PM 41.5126 -112.4732 144° Southeast 381 438 17,000 -240 Descending FlightAware ADS-B (KBTF)
07:56PM 41.4668 -112.4338 151° Southeast 380 437 17,000  Level FlightAware ADS-B
07:57PM 41.4208 -112.4009 152° Southeast 382 440 17,000 -300 Level FlightAware ADS-B (KBTF)
07:57PM 41.3706 -112.3651 152° Southeast 386 444 16,700 -1,020 Descending FlightAware ADS-B (KBTF)
07:58PM 41.3145 -112.3251 152° Southeast 384 442 15,900 -1,620 Descending FlightAware ADS-B
07:58PM 41.2632 -112.2889 152° Southeast 383 441 14,900 -1,620 Descending FlightAware ADS-B (KBTF)
07:59PM 41.2452 -112.2762 151° Southeast 371 427 14,700 -1,200 Descending FlightAware ADS-B (KBTF)
07:59PM 41.2403 -112.2727 152° Southeast 376 433 14,500 -1,020 Descending FlightAware ADS-B
07:59PM 41.1733 -112.2217 150° Southeast 372 428 13,900 -1,020 Descending FlightAware ADS-B (KBTF)
08:00PM 41.1242 -112.1842 150° Southeast 371 427 13,300 -1,080 Descending FlightAware ADS-B
08:00PM 41.0798 -112.1530 158° South 363 418 12,800 -1,080 Descending FlightAware ADS-B (KBTF)
08:01PM 41.0517 -112.1430 169° South 348 400 12,500 -1,020 Descending FlightAware ADS-B (KBTF)
08:01PM 40.9973 -112.1310 171° South 354 407 11,900 -960 Descending FlightAware ADS-B
08:02PM 40.9415 -112.1189 171° South 353 406 11,400 -900 Descending FlightAware ADS-B
08:02PM 40.8905 -112.1086 174° South 343 395 11,000 -420 Descending FlightAware ADS-B (KBTF)
08:03PM 40.8395 -112.1029 175° South 294 338 11,000  Level FlightAware ADS-B (KBTF)
08:04PM 40.7933 -112.0973 175° South 249 287 11,000 -360 Level FlightAware ADS-B
08:04PM 40.7585 -112.0930 175° South 238 274 10,600 -720 Descending FlightAware ADS-B
08:05PM 40.7249 -112.0888 174° South 210 242 10,300 -420 Descending FlightAware ADS-B (KBTF)
08:05PM 40.7162 -112.0873 166° South 189 217 10,300 -300 Level FlightAware ADS-B
08:05PM 40.7069 -112.0818 141° Southeast 172 198 10,200 -480 Descending FlightAware ADS-B (KBTF)
08:05PM 40.7043 -112.0784 130° Southeast 175 201 10,200 -1,140 Level FlightAware ADS-B (KBTF)
08:05PM 40.7016 -112.0726 115° Southeast 177 204 10,000 -2,160 Descending FlightAware ADS-B
08:05PM 40.6995 -112.0623 100° East 180 207 9,600 -2,280 Descending FlightAware ADS-B
08:06PM 40.6987 -112.0404 90° East 179 206 8,900 -2,100 Descending FlightAware ADS-B (KBTF)
08:06PM 40.6990 -112.0204 88° East 178 205 8,300 -2,040 Descending FlightAware ADS-B (KBTF)
08:06PM 40.6993 -112.0118 86° East 176 203 8,000 -2,760 Descending FlightAware ADS-B
08:06PM 40.7001 -111.9942 89° East 179 206 7,200 -2,760 Descending FlightAware ADS-B (KBTF)
08:07PM 40.7038 -111.9739 57° Northeast 176 203 6,400 -2,100 Descending FlightAware ADS-B (KBTF)
08:07PM 40.7164 -111.9635 11° North 149 171 5,800 -1,620 Descending FlightAware ADS-B (KBTF)
08:07PM 40.7304 -111.9622 North 145 167 5,300 -1,380 Descending FlightAware ADS-B (KBTF)
08:08PM 40.7434 -111.9621 North 131 151 4,900 -960 Descending FlightAware ADS-B (KBTF)
08:08PM 40.7548 -111.9622 North 127 146 4,700 -840 Descending FlightAware ADS-B (KBTF)
08:08PM 40.7577 -111.9622 360° North 132 152 4,600 -840 Descending FlightAware ADS-B (KBTF)
08:08PM 40.7682 -111.9621 North 129 148 4,400 -660 Descending FlightAware ADS-B (KBTF)
08:09PM 40.7802 -111.9621 360° North 208 239 4,200 -600 Descending FlightAware ADS-B (KBTF)